sensor_id;sensor_type;location;lat;lon;timestamp;pressure;altitude;pressure_sealevel;temperature;humidity
18569;BME280;14780;48.316;-1.050;2023-04-06T00:00:53;99318.28;;;22.24;35.06
18569;BME280;14780;48.316;-1.050;2023-04-06T00:03:38;99314.72;;;22.24;35.14
18569;BME280;14780;48.316;-1.050;2023-04-06T00:06:22;99312.53;;;22.21;35.08
18569;BME280;14780;48.316;-1.050;2023-04-06T00:09:07;99303.28;;;22.22;35.03
18569;BME280;14780;48.316;-1.050;2023-04-06T00:11:52;99305.44;;;22.20;35.11
18569;BME280;14780;48.316;-1.050;2023-04-06T00:14:37;99308.16;;;22.20;35.11
18569;BME280;14780;48.316;-1.050;2023-04-06T00:17:22;99306.25;;;22.20;35.17
18569;BME280;14780;48.316;-1.050;2023-04-06T00:20:07;99301.03;;;22.19;35.18
18569;BME280;14780;48.316;-1.050;2023-04-06T00:22:52;99283.88;;;22.18;35.10
18569;BME280;14780;48.316;-1.050;2023-04-06T00:25:38;99285.78;;;22.18;35.13
18569;BME280;14780;48.316;-1.050;2023-04-06T00:28:23;99290.41;;;22.17;35.17
18569;BME280;14780;48.316;-1.050;2023-04-06T00:31:10;99276.22;;;22.15;35.07
18569;BME280;14780;48.316;-1.050;2023-04-06T00:33:55;99286.28;;;22.15;35.16
18569;BME280;14780;48.316;-1.050;2023-04-06T00:36:40;99267.22;;;22.15;35.18
18569;BME280;14780;48.316;-1.050;2023-04-06T00:39:25;99273.75;;;22.14;35.17
18569;BME280;14780;48.316;-1.050;2023-04-06T00:42:12;99266.66;;;22.13;35.23
18569;BME280;14780;48.316;-1.050;2023-04-06T00:45:01;99268.31;;;22.14;35.25
18569;BME280;14780;48.316;-1.050;2023-04-06T00:47:46;99261.22;;;22.13;35.28
18569;BME280;14780;48.316;-1.050;2023-04-06T00:50:30;99251.41;;;22.12;35.24
18569;BME280;14780;48.316;-1.050;2023-04-06T00:53:15;99248.09;;;22.10;35.24
18569;BME280;14780;48.316;-1.050;2023-04-06T00:56:00;99241.56;;;22.11;35.35
18569;BME280;14780;48.316;-1.050;2023-04-06T00:58:45;99234.97;;;22.07;35.34
18569;BME280;14780;48.316;-1.050;2023-04-06T01:01:30;99230.09;;;22.09;35.38
18569;BME280;14780;48.316;-1.050;2023-04-06T01:04:16;99236.88;;;22.06;35.37
18569;BME280;14780;48.316;-1.050;2023-04-06T01:07:02;99244.50;;;22.04;35.43
18569;BME280;14780;48.316;-1.050;2023-04-06T01:09:46;99236.56;;;22.03;35.35
18569;BME280;14780;48.316;-1.050;2023-04-06T01:12:31;99252.91;;;22.03;35.44
18569;BME280;14780;48.316;-1.050;2023-04-06T01:15:15;99245.81;;;22.02;35.43
18569;BME280;14780;48.316;-1.050;2023-04-06T01:18:00;99241.44;;;22.01;35.38
18569;BME280;14780;48.316;-1.050;2023-04-06T01:20:45;99236.00;;;22.01;35.41
18569;BME280;14780;48.316;-1.050;2023-04-06T01:23:30;99223.47;;;22.00;35.48
18569;BME280;14780;48.316;-1.050;2023-04-06T01:26:14;99220.50;;;22.01;35.38
18569;BME280;14780;48.316;-1.050;2023-04-06T01:29:00;99218.03;;;22.00;35.49
18569;BME280;14780;48.316;-1.050;2023-04-06T01:31:46;99216.09;;;22.00;35.53
18569;BME280;14780;48.316;-1.050;2023-04-06T01:34:31;99212.81;;;21.98;35.46
18569;BME280;14780;48.316;-1.050;2023-04-06T01:37:15;99210.34;;;21.97;35.52
18569;BME280;14780;48.316;-1.050;2023-04-06T01:40:00;99213.91;;;21.97;35.51
18569;BME280;14780;48.316;-1.050;2023-04-06T01:42:45;99204.34;;;21.95;35.68
18569;BME280;14780;48.316;-1.050;2023-04-06T01:45:30;99214.44;;;21.94;35.55
18569;BME280;14780;48.316;-1.050;2023-04-06T01:48:14;99205.94;;;21.91;35.68
18569;BME280;14780;48.316;-1.050;2023-04-06T01:50:59;99207.00;;;21.90;35.69
18569;BME280;14780;48.316;-1.050;2023-04-06T01:53:43;99207.00;;;21.90;35.62
18569;BME280;14780;48.316;-1.050;2023-04-06T01:56:29;99197.19;;;21.89;35.61
18569;BME280;14780;48.316;-1.050;2023-04-06T01:59:13;99195.28;;;21.89;35.64
18569;BME280;14780;48.316;-1.050;2023-04-06T02:01:58;99199.09;;;21.88;35.68
18569;BME280;14780;48.316;-1.050;2023-04-06T02:04:43;99206.19;;;21.89;35.56
18569;BME280;14780;48.316;-1.050;2023-04-06T02:07:28;99201.00;;;21.88;35.64
18569;BME280;14780;48.316;-1.050;2023-04-06T02:10:13;99198.25;;;21.88;35.72
18569;BME280;14780;48.316;-1.050;2023-04-06T02:12:58;99205.88;;;21.86;35.74
18569;BME280;14780;48.316;-1.050;2023-04-06T02:15:43;99201.50;;;21.85;35.70
18569;BME280;14780;48.316;-1.050;2023-04-06T02:18:29;99198.78;;;21.85;35.73
18569;BME280;14780;48.316;-1.050;2023-04-06T02:21:14;99197.16;;;21.84;35.68
18569;BME280;14780;48.316;-1.050;2023-04-06T02:24:04;99190.88;;;21.83;35.74
18569;BME280;14780;48.316;-1.050;2023-04-06T02:26:49;99199.03;;;21.83;35.79
18569;BME280;14780;48.316;-1.050;2023-04-06T02:29:34;99202.00;;;21.82;35.85
18569;BME280;14780;48.316;-1.050;2023-04-06T02:32:19;99191.13;;;21.82;35.80
18569;BME280;14780;48.316;-1.050;2023-04-06T02:35:04;99192.19;;;21.81;35.72
18569;BME280;14780;48.316;-1.050;2023-04-06T02:37:49;99183.72;;;21.77;35.90
18569;BME280;14780;48.316;-1.050;2023-04-06T02:40:34;99184.00;;;21.76;35.97
18569;BME280;14780;48.316;-1.050;2023-04-06T02:43:19;99188.59;;;21.75;35.92
18569;BME280;14780;48.316;-1.050;2023-04-06T02:46:04;99182.59;;;21.73;36.00
18569;BME280;14780;48.316;-1.050;2023-04-06T02:48:49;99173.09;;;21.76;35.85
18569;BME280;14780;48.316;-1.050;2023-04-06T02:51:33;99176.88;;;21.75;35.93
18569;BME280;14780;48.316;-1.050;2023-04-06T02:54:18;99173.09;;;21.76;35.89
18569;BME280;14780;48.316;-1.050;2023-04-06T02:57:03;99175.81;;;21.76;35.79
18569;BME280;14780;48.316;-1.050;2023-04-06T02:59:47;99185.88;;;21.75;35.95
18569;BME280;14780;48.316;-1.050;2023-04-06T03:02:32;99173.34;;;21.74;35.92
18569;BME280;14780;48.316;-1.050;2023-04-06T03:05:16;99168.69;;;21.75;35.94
18569;BME280;14780;48.316;-1.050;2023-04-06T03:08:02;99164.34;;;21.74;35.96
18569;BME280;14780;48.316;-1.050;2023-04-06T03:10:47;99162.69;;;21.73;35.99
18569;BME280;14780;48.316;-1.050;2023-04-06T03:13:33;99159.19;;;21.72;35.90
18569;BME280;14780;48.316;-1.050;2023-04-06T03:16:18;99159.97;;;21.73;36.00
18569;BME280;14780;48.316;-1.050;2023-04-06T03:19:02;99161.06;;;21.72;36.02
18569;BME280;14780;48.316;-1.050;2023-04-06T03:21:47;99171.13;;;21.71;36.03
18569;BME280;14780;48.316;-1.050;2023-04-06T03:24:31;99177.66;;;21.70;35.97
18569;BME280;14780;48.316;-1.050;2023-04-06T03:27:16;99174.13;;;21.70;35.93
18569;BME280;14780;48.316;-1.050;2023-04-06T03:30:02;99179.56;;;21.70;35.93
18569;BME280;14780;48.316;-1.050;2023-04-06T03:32:47;99178.97;;;21.68;35.97
18569;BME280;14780;48.316;-1.050;2023-04-06T03:35:31;99185.50;;;21.67;36.02
18569;BME280;14780;48.316;-1.050;2023-04-06T03:38:16;99178.16;;;21.67;36.02
18569;BME280;14780;48.316;-1.050;2023-04-06T03:41:01;99174.59;;;21.67;36.09
18569;BME280;14780;48.316;-1.050;2023-04-06T03:43:45;99168.38;;;21.66;36.04
18569;BME280;14780;48.316;-1.050;2023-04-06T03:46:30;99173.81;;;21.66;35.94
18569;BME280;14780;48.316;-1.050;2023-04-06T03:49:15;99176.75;;;21.65;35.99
18569;BME280;14780;48.316;-1.050;2023-04-06T03:52:01;99166.69;;;21.65;35.97
18569;BME280;14780;48.316;-1.050;2023-04-06T03:54:46;99163.97;;;21.65;36.00
18569;BME280;14780;48.316;-1.050;2023-04-06T03:57:30;99158.75;;;21.64;36.05
18569;BME280;14780;48.316;-1.050;2023-04-06T04:00:15;99157.13;;;21.63;36.07
18569;BME280;14780;48.316;-1.050;2023-04-06T04:03:00;99166.09;;;21.63;36.04
18569;BME280;14780;48.316;-1.050;2023-04-06T04:05:46;99169.09;;;21.62;36.03
18569;BME280;14780;48.316;-1.050;2023-04-06T04:08:31;99168.81;;;21.63;36.12
18569;BME280;14780;48.316;-1.050;2023-04-06T04:11:15;99160.09;;;21.61;36.07
18569;BME280;14780;48.316;-1.050;2023-04-06T04:14:00;99164.72;;;21.61;36.04
18569;BME280;14780;48.316;-1.050;2023-04-06T04:16:45;99155.47;;;21.62;36.13
18569;BME280;14780;48.316;-1.050;2023-04-06T04:19:30;99160.34;;;21.60;36.12
18569;BME280;14780;48.316;-1.050;2023-04-06T04:22:14;99170.66;;;21.58;36.17
18569;BME280;14780;48.316;-1.050;2023-04-06T04:24:59;99161.44;;;21.59;36.18
18569;BME280;14780;48.316;-1.050;2023-04-06T04:27:44;99165.22;;;21.58;36.20
18569;BME280;14780;48.316;-1.050;2023-04-06T04:30:29;99171.75;;;21.57;36.17
18569;BME280;14780;48.316;-1.050;2023-04-06T04:33:13;99156.50;;;21.56;36.20
18569;BME280;14780;48.316;-1.050;2023-04-06T04:35:58;99160.88;;;21.57;36.20
18569;BME280;14780;48.316;-1.050;2023-04-06T04:38:42;99155.66;;;21.55;36.27
18569;BME280;14780;48.316;-1.050;2023-04-06T04:41:27;99160.56;;;21.53;36.21
18569;BME280;14780;48.316;-1.050;2023-04-06T04:44:12;99152.38;;;21.53;36.22
18569;BME280;14780;48.316;-1.050;2023-04-06T04:46:56;99158.63;;;21.54;36.28
18569;BME280;14780;48.316;-1.050;2023-04-06T04:49:41;99162.44;;;21.53;36.23
18569;BME280;14780;48.316;-1.050;2023-04-06T04:52:26;99160.81;;;21.52;36.31
18569;BME280;14780;48.316;-1.050;2023-04-06T04:55:11;99171.69;;;21.52;36.25
18569;BME280;14780;48.316;-1.050;2023-04-06T04:57:56;99170.03;;;21.51;36.33
18569;BME280;14780;48.316;-1.050;2023-04-06T05:00:40;99167.56;;;21.49;36.27
18569;BME280;14780;48.316;-1.050;2023-04-06T05:03:26;99164.59;;;21.51;36.33
18569;BME280;14780;48.316;-1.050;2023-04-06T05:06:11;99171.13;;;21.50;36.35
18569;BME280;14780;48.316;-1.050;2023-04-06T05:08:56;99168.41;;;21.50;36.35
18569;BME280;14780;48.316;-1.050;2023-04-06T05:11:41;99167.56;;;21.49;36.27
18569;BME280;14780;48.316;-1.050;2023-04-06T05:14:26;99161.31;;;21.49;36.33
18569;BME280;14780;48.316;-1.050;2023-04-06T05:17:11;99154.47;;;21.46;36.32
18569;BME280;14780;48.316;-1.050;2023-04-06T05:19:56;99150.91;;;21.46;36.24
18569;BME280;14780;48.316;-1.050;2023-04-06T05:22:40;99147.41;;;21.45;36.35
18569;BME280;14780;48.316;-1.050;2023-04-06T05:25:25;99149.28;;;21.45;36.37
18569;BME280;14780;48.316;-1.050;2023-04-06T05:28:10;99144.91;;;21.44;36.45
18569;BME280;14780;48.316;-1.050;2023-04-06T05:30:54;99147.63;;;21.44;36.35
18569;BME280;14780;48.316;-1.050;2023-04-06T05:33:40;99141.63;;;21.42;36.43
18569;BME280;14780;48.316;-1.050;2023-04-06T05:36:24;99133.47;;;21.42;36.44
18569;BME280;14780;48.316;-1.050;2023-04-06T05:39:09;99134.56;;;21.41;36.46
18569;BME280;14780;48.316;-1.050;2023-04-06T05:41:54;99142.72;;;21.41;36.45
18569;BME280;14780;48.316;-1.050;2023-04-06T05:44:39;99148.16;;;21.41;36.41
18569;BME280;14780;48.316;-1.050;2023-04-06T05:47:24;99148.16;;;21.41;36.44
18569;BME280;14780;48.316;-1.050;2023-04-06T05:50:10;99144.84;;;21.39;36.45
18569;BME280;14780;48.316;-1.050;2023-04-06T05:52:55;99155.75;;;21.39;36.56
18569;BME280;14780;48.316;-1.050;2023-04-06T05:55:39;99153.03;;;21.39;36.53
18569;BME280;14780;48.316;-1.050;2023-04-06T05:58:24;99150.28;;;21.39;36.46
18569;BME280;14780;48.316;-1.050;2023-04-06T06:01:08;99140.50;;;21.38;36.56
18569;BME280;14780;48.316;-1.050;2023-04-06T06:03:54;99153.53;;;21.36;36.45
18569;BME280;14780;48.316;-1.050;2023-04-06T06:06:39;99149.19;;;21.35;36.53
18569;BME280;14780;48.316;-1.050;2023-04-06T06:09:23;99142.09;;;21.34;36.52
18569;BME280;14780;48.316;-1.050;2023-04-06T06:12:08;99132.84;;;21.35;36.46
18569;BME280;14780;48.316;-1.050;2023-04-06T06:14:53;99122.22;;;21.33;36.52
18569;BME280;14780;48.316;-1.050;2023-04-06T06:17:38;99117.84;;;21.32;36.56
18569;BME280;14780;48.316;-1.050;2023-04-06T06:20:23;99128.72;;;21.32;36.55
18569;BME280;14780;48.316;-1.050;2023-04-06T06:23:08;99133.34;;;21.32;36.55
18569;BME280;14780;48.316;-1.050;2023-04-06T06:25:52;99138.22;;;21.30;36.62
18569;BME280;14780;48.316;-1.050;2023-04-06T06:28:38;99139.84;;;21.31;36.62
18569;BME280;14780;48.316;-1.050;2023-04-06T06:31:22;99145.31;;;21.31;36.57
18569;BME280;14780;48.316;-1.050;2023-04-06T06:34:07;99138.78;;;21.32;36.58
18569;BME280;14780;48.316;-1.050;2023-04-06T06:36:52;99140.13;;;21.29;36.66
18569;BME280;14780;48.316;-1.050;2023-04-06T06:39:39;99142.84;;;21.29;36.64
18569;BME280;14780;48.316;-1.050;2023-04-06T06:42:23;99144.75;;;21.29;36.61
18569;BME280;14780;48.316;-1.050;2023-04-06T06:45:09;99146.63;;;21.28;36.72
18569;BME280;14780;48.316;-1.050;2023-04-06T06:47:54;99149.34;;;21.28;36.65
18569;BME280;14780;48.316;-1.050;2023-04-06T06:50:39;99158.34;;;21.29;36.71
18569;BME280;14780;48.316;-1.050;2023-04-06T06:53:24;99159.69;;;21.26;36.53
18569;BME280;14780;48.316;-1.050;2023-04-06T06:56:09;99160.50;;;21.27;36.65
18569;BME280;14780;48.316;-1.050;2023-04-06T06:58:54;99169.75;;;21.26;36.67
18569;BME280;14780;48.316;-1.050;2023-04-06T07:01:39;99156.16;;;21.26;36.67
18569;BME280;14780;48.316;-1.050;2023-04-06T07:04:24;99149.03;;;21.25;36.89
18569;BME280;14780;48.316;-1.050;2023-04-06T07:07:09;99142.78;;;21.24;36.79
18569;BME280;14780;48.316;-1.050;2023-04-06T07:09:54;99149.03;;;21.25;36.72
18569;BME280;14780;48.316;-1.050;2023-04-06T07:12:39;99145.25;;;21.26;36.80
18569;BME280;14780;48.316;-1.050;2023-04-06T07:15:24;99154.47;;;21.25;36.77
18569;BME280;14780;48.316;-1.050;2023-04-06T07:18:09;99157.19;;;21.25;36.75
18569;BME280;14780;48.316;-1.050;2023-04-06T07:20:54;99154.47;;;21.25;36.85
18569;BME280;14780;48.316;-1.050;2023-04-06T07:23:39;99150.94;;;21.24;36.71
18569;BME280;14780;48.316;-1.050;2023-04-06T07:26:24;99161.00;;;21.24;36.81
18569;BME280;14780;48.316;-1.050;2023-04-06T07:29:09;99172.97;;;21.23;36.81
18569;BME280;14780;48.316;-1.050;2023-04-06T07:31:54;99167.53;;;21.23;36.79
18569;BME280;14780;48.316;-1.050;2023-04-06T07:34:39;99175.69;;;21.23;36.78
18569;BME280;14780;48.316;-1.050;2023-04-06T07:37:24;99181.38;;;21.21;36.79
18569;BME280;14780;48.316;-1.050;2023-04-06T07:40:09;99194.16;;;21.21;36.79
18569;BME280;14780;48.316;-1.050;2023-04-06T07:42:54;99193.09;;;21.22;36.83
18569;BME280;14780;48.316;-1.050;2023-04-06T07:45:39;99197.69;;;21.21;36.81
18569;BME280;14780;48.316;-1.050;2023-04-06T07:48:24;99191.44;;;21.21;36.85
18569;BME280;14780;48.316;-1.050;2023-04-06T07:51:09;99203.13;;;21.21;36.88
18569;BME280;14780;48.316;-1.050;2023-04-06T07:53:58;99198.78;;;21.20;36.95
18569;BME280;14780;48.316;-1.050;2023-04-06T07:56:43;99199.84;;;21.19;36.92
18569;BME280;14780;48.316;-1.050;2023-04-06T07:59:27;99194.66;;;21.18;36.90
18569;BME280;14780;48.316;-1.050;2023-04-06T08:02:12;99204.50;;;21.19;36.97
18569;BME280;14780;48.316;-1.050;2023-04-06T08:04:57;99207.22;;;21.19;36.84
18569;BME280;14780;48.316;-1.050;2023-04-06T08:07:42;99213.69;;;21.18;36.84
18569;BME280;14780;48.316;-1.050;2023-04-06T08:10:27;99210.19;;;21.17;36.93
18569;BME280;14780;48.316;-1.050;2023-04-06T08:13:12;99214.78;;;21.17;36.88
18569;BME280;14780;48.316;-1.050;2023-04-06T08:15:57;99217.50;;;21.17;36.87
18569;BME280;14780;48.316;-1.050;2023-04-06T08:18:42;99219.41;;;21.16;36.91
18569;BME280;14780;48.316;-1.050;2023-04-06T08:21:26;99230.31;;;21.16;36.85
18569;BME280;14780;48.316;-1.050;2023-04-06T08:24:11;99242.25;;;21.15;36.88
18569;BME280;14780;48.316;-1.050;2023-04-06T08:26:56;99237.63;;;21.16;36.89
18569;BME280;14780;48.316;-1.050;2023-04-06T08:29:41;99240.59;;;21.14;36.95
18569;BME280;14780;48.316;-1.050;2023-04-06T08:32:26;99235.16;;;21.14;37.00
18569;BME280;14780;48.316;-1.050;2023-04-06T08:35:11;99237.63;;;21.16;36.99
18569;BME280;14780;48.316;-1.050;2023-04-06T08:37:57;99225.09;;;21.15;37.02
18569;BME280;14780;48.316;-1.050;2023-04-06T08:40:42;99230.53;;;21.15;37.07
18569;BME280;14780;48.316;-1.050;2023-04-06T08:43:29;99225.63;;;21.12;37.05
18569;BME280;14780;48.316;-1.050;2023-04-06T08:46:15;99221.81;;;21.13;37.02
18569;BME280;14780;48.316;-1.050;2023-04-06T08:49:02;99219.09;;;21.13;37.16
18569;BME280;14780;48.316;-1.050;2023-04-06T08:51:48;99209.28;;;21.12;37.15
18569;BME280;14780;48.316;-1.050;2023-04-06T08:54:34;99221.81;;;21.13;37.19
18569;BME280;14780;48.316;-1.050;2023-04-06T08:57:19;99227.81;;;21.15;37.06
18569;BME280;14780;48.316;-1.050;2023-04-06T09:00:05;99225.94;;;21.15;37.08
18569;BME280;14780;48.316;-1.050;2023-04-06T09:02:53;99228.91;;;21.14;37.13
18569;BME280;14780;48.316;-1.050;2023-04-06T09:05:40;99227.59;;;21.16;37.06
18569;BME280;14780;48.316;-1.050;2023-04-06T09:08:25;99236.00;;;21.15;37.04
18569;BME280;14780;48.316;-1.050;2023-04-06T09:11:10;99240.34;;;21.16;37.12
18569;BME280;14780;48.316;-1.050;2023-04-06T09:13:56;99245.22;;;21.14;37.20
18569;BME280;14780;48.316;-1.050;2023-04-06T09:16:44;99248.47;;;21.11;37.28
18569;BME280;14780;48.316;-1.050;2023-04-06T09:19:29;99248.50;;;21.16;37.13
18569;BME280;14780;48.316;-1.050;2023-04-06T09:22:14;99248.28;;;21.17;37.19
18569;BME280;14780;48.316;-1.050;2023-04-06T09:24:59;99259.16;;;21.17;37.18
18569;BME280;14780;48.316;-1.050;2023-04-06T09:27:44;99258.31;;;21.17;37.15
18569;BME280;14780;48.316;-1.050;2023-04-06T09:30:30;99265.69;;;21.16;37.18
18569;BME280;14780;48.316;-1.050;2023-04-06T09:33:24;99265.41;;;21.18;37.18
18569;BME280;14780;48.316;-1.050;2023-04-06T09:36:10;99268.13;;;21.18;37.12
18569;BME280;14780;48.316;-1.050;2023-04-06T09:39:03;99265.41;;;21.18;37.23
18569;BME280;14780;48.316;-1.050;2023-04-06T09:41:51;99269.78;;;21.19;37.23
18569;BME280;14780;48.316;-1.050;2023-04-06T09:44:36;99260.78;;;21.18;37.24
18569;BME280;14780;48.316;-1.050;2023-04-06T09:47:23;99260.56;;;21.20;37.19
18569;BME280;14780;48.316;-1.050;2023-04-06T09:50:10;99257.00;;;21.19;37.20
18569;BME280;14780;48.316;-1.050;2023-04-06T09:52:57;99260.56;;;21.20;37.18
18569;BME280;14780;48.316;-1.050;2023-04-06T09:55:43;99273.09;;;21.21;37.20
18569;BME280;14780;48.316;-1.050;2023-04-06T09:58:34;99276.38;;;21.23;37.16
18569;BME280;14780;48.316;-1.050;2023-04-06T10:01:22;99276.38;;;21.23;37.21
18569;BME280;14780;48.316;-1.050;2023-04-06T10:07:16;99278.00;;;21.24;37.17
18569;BME280;14780;48.316;-1.050;2023-04-06T10:10:03;99283.44;;;21.24;37.24
18569;BME280;14780;48.316;-1.050;2023-04-06T10:12:48;99285.09;;;21.25;37.21
18569;BME280;14780;48.316;-1.050;2023-04-06T10:15:34;99295.19;;;21.24;37.20
18569;BME280;14780;48.316;-1.050;2023-04-06T10:18:19;99294.09;;;21.25;37.23
18569;BME280;14780;48.316;-1.050;2023-04-06T10:21:14;99282.13;;;21.26;37.18
18569;BME280;14780;48.316;-1.050;2023-04-06T10:24:02;99268.19;;;21.23;37.24
18569;BME280;14780;48.316;-1.050;2023-04-06T10:26:58;99274.22;;;21.25;37.14
18569;BME280;14780;48.316;-1.050;2023-04-06T10:29:44;99261.69;;;21.24;37.14
18569;BME280;14780;48.316;-1.050;2023-04-06T10:32:34;99262.53;;;21.24;37.12
18569;BME280;14780;48.316;-1.050;2023-04-06T10:35:20;99268.75;;;21.25;37.23
18569;BME280;14780;48.316;-1.050;2023-04-06T10:38:05;99259.56;;;21.26;37.25
18569;BME280;14780;48.316;-1.050;2023-04-06T10:40:50;99265.56;;;21.28;37.30
18569;BME280;14780;48.316;-1.050;2023-04-06T10:43:37;99259.28;;;21.27;37.24
18569;BME280;14780;48.316;-1.050;2023-04-06T10:46:26;99248.16;;;21.29;37.23
18569;BME280;14780;48.316;-1.050;2023-04-06T10:49:12;99256.06;;;21.30;37.25
18569;BME280;14780;48.316;-1.050;2023-04-06T10:51:57;99259.59;;;21.31;37.36
18569;BME280;14780;48.316;-1.050;2023-04-06T10:54:42;99251.44;;;21.31;37.27
18569;BME280;14780;48.316;-1.050;2023-04-06T10:57:31;99246.31;;;21.34;37.24
18569;BME280;14780;48.316;-1.050;2023-04-06T11:00:18;99248.78;;;21.36;37.26
18569;BME280;14780;48.316;-1.050;2023-04-06T11:03:04;99251.28;;;21.37;37.24
18569;BME280;14780;48.316;-1.050;2023-04-06T11:05:49;99254.56;;;21.39;37.14
18569;BME280;14780;48.316;-1.050;2023-04-06T11:08:34;99267.09;;;21.40;37.21
18569;BME280;14780;48.316;-1.050;2023-04-06T11:11:21;99261.66;;;21.40;37.22
18569;BME280;14780;48.316;-1.050;2023-04-06T11:14:10;99262.47;;;21.41;37.36
18569;BME280;14780;48.316;-1.050;2023-04-06T11:16:55;99267.66;;;21.42;37.30
18569;BME280;14780;48.316;-1.050;2023-04-06T11:19:40;99259.50;;;21.42;37.28
18569;BME280;14780;48.316;-1.050;2023-04-06T11:22:25;99257.59;;;21.43;37.24
18569;BME280;14780;48.316;-1.050;2023-04-06T11:25:11;99260.31;;;21.43;37.22
18569;BME280;14780;48.316;-1.050;2023-04-06T11:27:56;99253.81;;;21.44;37.25
18569;BME280;14780;48.316;-1.050;2023-04-06T11:30:41;99247.28;;;21.45;37.27
18569;BME280;14780;48.316;-1.050;2023-04-06T11:33:26;99247.28;;;21.45;37.23
18569;BME280;14780;48.316;-1.050;2023-04-06T11:36:11;99259.00;;;21.45;37.25
18569;BME280;14780;48.316;-1.050;2023-04-06T11:38:58;99251.91;;;21.44;37.27
18569;BME280;14780;48.316;-1.050;2023-04-06T11:41:46;99257.59;;;21.43;37.25
18569;BME280;14780;48.316;-1.050;2023-04-06T11:44:38;99255.44;;;21.45;37.19
18569;BME280;14780;48.316;-1.050;2023-04-06T11:47:32;99254.63;;;21.44;37.15
18569;BME280;14780;48.316;-1.050;2023-04-06T11:50:17;99262.22;;;21.42;37.31
18569;BME280;14780;48.316;-1.050;2023-04-06T11:53:03;99259.50;;;21.42;37.20
18569;BME280;14780;48.316;-1.050;2023-04-06T11:55:47;99258.69;;;21.42;37.29
18569;BME280;14780;48.316;-1.050;2023-04-06T11:58:32;99266.00;;;21.41;37.26
18569;BME280;14780;48.316;-1.050;2023-04-06T12:01:17;99258.13;;;21.40;37.29
18569;BME280;14780;48.316;-1.050;2023-04-06T12:04:01;99256.44;;;21.39;37.20
18569;BME280;14780;48.316;-1.050;2023-04-06T12:06:47;99255.41;;;21.40;37.26
18569;BME280;14780;48.316;-1.050;2023-04-06T12:09:32;99253.72;;;21.39;37.18
18569;BME280;14780;48.316;-1.050;2023-04-06T12:12:19;99242.59;;;21.40;37.25
18569;BME280;14780;48.316;-1.050;2023-04-06T12:15:04;99242.84;;;21.39;37.29
18569;BME280;14780;48.316;-1.050;2023-04-06T12:17:49;99240.72;;;21.41;37.29
18569;BME280;14780;48.316;-1.050;2023-04-06T12:20:34;99249.13;;;21.39;37.27
18569;BME280;14780;48.316;-1.050;2023-04-06T12:23:22;99254.31;;;21.41;37.25
18569;BME280;14780;48.316;-1.050;2023-04-06T12:26:07;99252.41;;;21.41;37.30
18569;BME280;14780;48.316;-1.050;2023-04-06T12:28:51;99255.41;;;21.40;37.25
18569;BME280;14780;48.316;-1.050;2023-04-06T12:31:36;99249.44;;;21.43;37.28
18569;BME280;14780;48.316;-1.050;2023-04-06T12:34:23;99259.75;;;21.41;37.26
18569;BME280;14780;48.316;-1.050;2023-04-06T12:37:07;99267.94;;;21.41;37.26
18569;BME280;14780;48.316;-1.050;2023-04-06T12:39:53;99269.56;;;21.42;37.37
18569;BME280;14780;48.316;-1.050;2023-04-06T12:42:39;99266.28;;;21.40;37.26
18569;BME280;14780;48.316;-1.050;2023-04-06T12:45:25;99277.16;;;21.40;37.27
18569;BME280;14780;48.316;-1.050;2023-04-06T12:48:10;99270.88;;;21.39;37.33
18569;BME280;14780;48.316;-1.050;2023-04-06T12:51:02;99274.44;;;21.40;37.36
18569;BME280;14780;48.316;-1.050;2023-04-06T12:53:47;99274.44;;;21.40;37.34
18569;BME280;14780;48.316;-1.050;2023-04-06T12:56:33;99279.91;;;21.40;37.30
18569;BME280;14780;48.316;-1.050;2023-04-06T12:59:18;99275.50;;;21.39;37.34
18569;BME280;14780;48.316;-1.050;2023-04-06T13:02:04;99273.84;;;21.38;37.27
18569;BME280;14780;48.316;-1.050;2023-04-06T13:04:49;99280.13;;;21.38;37.32
18569;BME280;14780;48.316;-1.050;2023-04-06T13:07:34;99257.53;;;21.38;37.32
18569;BME280;14780;48.316;-1.050;2023-04-06T13:10:19;99252.91;;;21.38;37.29
18569;BME280;14780;48.316;-1.050;2023-04-06T13:13:04;99259.16;;;21.39;37.33
18569;BME280;14780;48.316;-1.050;2023-04-06T13:15:50;99263.56;;;21.40;37.39
18569;BME280;14780;48.316;-1.050;2023-04-06T13:18:35;99269.25;;;21.38;37.36
18569;BME280;14780;48.316;-1.050;2023-04-06T13:21:22;99267.34;;;21.39;37.25
18569;BME280;14780;48.316;-1.050;2023-04-06T13:24:07;99266.28;;;21.40;37.36
18569;BME280;14780;48.316;-1.050;2023-04-06T13:26:51;99274.69;;;21.38;37.27
18569;BME280;14780;48.316;-1.050;2023-04-06T13:29:36;99281.78;;;21.39;37.30
18569;BME280;14780;48.316;-1.050;2023-04-06T13:32:21;99280.13;;;21.38;37.33
18569;BME280;14780;48.316;-1.050;2023-04-06T13:35:07;99270.06;;;21.39;37.32
18569;BME280;14780;48.316;-1.050;2023-04-06T13:37:52;99272.78;;;21.39;37.31
18569;BME280;14780;48.316;-1.050;2023-04-06T13:40:39;99279.31;;;21.38;37.38
18569;BME280;14780;48.316;-1.050;2023-04-06T13:43:24;99274.13;;;21.36;37.33
18569;BME280;14780;48.316;-1.050;2023-04-06T13:46:11;99273.06;;;21.37;37.39
18569;BME280;14780;48.316;-1.050;2023-04-06T13:48:56;99279.31;;;21.38;37.38
18569;BME280;14780;48.316;-1.050;2023-04-06T13:51:40;99271.41;;;21.36;37.34
18569;BME280;14780;48.316;-1.050;2023-04-06T13:54:27;99274.94;;;21.37;37.29
18569;BME280;14780;48.316;-1.050;2023-04-06T13:57:12;99270.56;;;21.36;37.38
18569;BME280;14780;48.316;-1.050;2023-04-06T13:59:57;99280.63;;;21.35;37.36
18569;BME280;14780;48.316;-1.050;2023-04-06T14:02:42;99272.22;;;21.37;37.38
18569;BME280;14780;48.316;-1.050;2023-04-06T14:05:30;99277.09;;;21.35;37.41
18569;BME280;14780;48.316;-1.050;2023-04-06T14:08:15;99264.28;;;21.35;37.40
18569;BME280;14780;48.316;-1.050;2023-04-06T14:11:00;99263.72;;;21.33;37.40
18569;BME280;14780;48.316;-1.050;2023-04-06T14:13:44;99270.00;;;21.34;37.39
18569;BME280;14780;48.316;-1.050;2023-04-06T14:16:29;99272.13;;;21.32;37.46
18569;BME280;14780;48.316;-1.050;2023-04-06T14:19:17;99281.97;;;21.33;37.37
18569;BME280;14780;48.316;-1.050;2023-04-06T14:22:03;99273.72;;;21.28;37.48
18569;BME280;14780;48.316;-1.050;2023-04-06T14:24:48;99272.41;;;21.30;37.38
18569;BME280;14780;48.316;-1.050;2023-04-06T14:27:33;99261.00;;;21.33;37.37